Time;durP1;ratioP1;P1;durP2;ratioP2;P2;SDS_P1;SDS_P2;PMS_P1;PMS_P2;Temp;Humidity;BMP_temperature;BMP_pressure;BME280_temperature;BME280_humidity;BME280_pressure;Samples;Min_cycle;Max_cycle;Signal;HPM_P1;HPM_P2
2022/01/03 00:01:20;;;;;;;9.02;1.63;;;9.20;99.90;;;;;;5059206;28;20032;-88
2022/01/03 00:03:47;;;;;;;9.37;1.33;;;9.20;99.90;;;;;;5059393;28;20044;-88
2022/01/03 00:06:14;;;;;;;6.05;1.83;;;9.20;99.90;;;;;;5070653;28;20028;-88
2022/01/03 00:08:43;;;;;;;6.78;1.38;;;9.20;99.90;;;;;;5079322;28;20039;-88
2022/01/03 00:11:45;;;;;;;9.20;1.85;;;9.80;99.90;;;;;;5069331;28;20040;-88
2022/01/03 00:14:10;;;;;;;5.53;1.20;;;9.20;99.90;;;;;;5060492;28;20115;-88
2022/01/03 00:16:36;;;;;;;6.88;1.10;;;9.20;99.90;;;;;;5070547;28;20122;-88
2022/01/03 00:19:19;;;;;;;1.73;0.80;;;9.30;99.90;;;;;;5080685;28;20046;-88
2022/01/03 00:21:46;;;;;;;3.50;1.42;;;9.30;99.90;;;;;;5080411;28;20123;-89
2022/01/03 00:24:12;;;;;;;6.35;1.30;;;9.30;99.90;;;;;;5068704;28;20042;-88
2022/01/03 00:26:39;;;;;;;10.85;0.77;;;9.30;99.90;;;;;;5059939;28;20044;-88
2022/01/03 00:29:11;;;;;;;6.72;0.93;;;9.30;99.90;;;;;;5077438;28;20512;-87
2022/01/03 00:31:41;;;;;;;3.72;1.13;;;9.30;99.90;;;;;;5075903;28;20604;-88
2022/01/03 00:34:09;;;;;;;10.48;1.95;;;9.30;99.90;;;;;;5086361;27;20457;-88
2022/01/03 00:36:35;;;;;;;12.80;1.98;;;9.40;99.90;;;;;;5070405;28;20032;-88
2022/01/03 00:39:07;;;;;;;4.65;0.82;;;9.50;99.90;;;;;;5060183;28;20046;-88
2022/01/03 00:41:33;;;;;;;6.65;1.50;;;9.40;99.90;;;;;;5060094;28;20032;-88
2022/01/03 00:43:58;;;;;;;8.27;1.27;;;9.40;99.90;;;;;;5060034;28;20089;-88
2022/01/03 00:46:26;;;;;;;3.42;0.80;;;9.40;99.90;;;;;;5059427;28;20397;-88
2022/01/03 00:48:53;;;;;;;6.07;1.73;;;9.50;99.90;;;;;;5059779;28;20115;-88
2022/01/03 00:51:19;;;;;;;19.83;3.05;;;9.50;99.90;;;;;;5059846;28;20169;-88
2022/01/03 00:53:48;;;;;;;1.50;0.60;;;9.50;99.90;;;;;;5059652;28;20043;-87
2022/01/03 00:56:24;;;;;;;1.48;0.90;;;9.50;99.90;;;;;;5068625;28;20039;-88
2022/01/03 00:59:13;;;;;;;5.72;1.88;;;9.50;99.90;;;;;;5096567;28;20050;-88
2022/01/03 01:01:49;;;;;;;6.88;1.63;;;9.50;99.90;;;;;;5065394;28;20036;-88
2022/01/03 01:04:17;;;;;;;4.80;1.20;;;9.50;99.90;;;;;;5059705;28;20042;-88
2022/01/03 01:06:42;;;;;;;3.00;1.38;;;9.40;99.90;;;;;;5059115;28;20115;-88
2022/01/03 01:09:12;;;;;;;4.50;1.25;;;9.50;99.90;;;;;;5059605;28;20134;-88
2022/01/03 01:11:42;;;;;;;8.05;1.17;;;9.50;99.90;;;;;;5059403;28;20047;-88
2022/01/03 01:14:07;;;;;;;4.10;1.27;;;9.40;99.90;;;;;;5059099;28;20028;-88
2022/01/03 01:16:34;;;;;;;6.95;1.60;;;9.50;99.90;;;;;;5058987;28;20097;-88
2022/01/03 01:19:00;;;;;;;4.43;0.82;;;9.50;99.90;;;;;;5059514;28;20028;-88
2022/01/03 01:21:26;;;;;;;5.28;0.65;;;9.40;99.90;;;;;;5059273;28;20028;-88
2022/01/03 01:23:53;;;;;;;14.88;1.27;;;9.40;99.90;;;;;;5059846;28;20043;-89
2022/01/03 01:29:04;;;;;;;;;;;9.50;99.90;;;;;;5076165;28;20106;-88
2022/01/03 01:31:34;;;;;;;6.93;1.23;;;9.40;99.90;;;;;;5059379;28;20010;-89
2022/01/03 01:34:04;;;;;;;7.05;1.70;;;9.40;99.90;;;;;;5077301;28;20035;-88
2022/01/03 01:36:31;;;;;;;3.40;0.82;;;9.50;99.90;;;;;;5078997;28;20043;-88
2022/01/03 01:39:05;;;;;;;4.05;1.15;;;9.50;99.90;;;;;;5078417;28;20047;-89
2022/01/03 01:41:37;;;;;;;6.47;1.15;;;9.40;99.90;;;;;;5078928;28;20126;-88
2022/01/03 01:44:07;;;;;;;4.95;1.25;;;9.40;99.90;;;;;;5078451;28;20032;-88
2022/01/03 01:46:34;;;;;;;8.50;1.27;;;9.60;99.90;;;;;;5078821;28;20062;-88
2022/01/03 01:49:03;;;;;;;1.13;0.47;;;9.50;99.90;;;;;;5078906;28;20083;-88
2022/01/03 01:51:34;;;;;;;4.00;1.13;;;9.40;99.90;;;;;;5078862;28;20036;-88
2022/01/03 01:54:04;;;;;;;12.00;1.95;;;9.50;99.90;;;;;;5068811;28;20070;-88
2022/01/03 01:56:51;;;;;;;4.95;0.90;;;9.50;99.90;;;;;;5058635;28;20032;-88
2022/01/03 01:59:25;;;;;;;4.25;1.23;;;9.50;99.90;;;;;;5076893;28;20035;-88
2022/01/03 02:01:58;;;;;;;2.33;0.70;;;9.40;99.90;;;;;;5079385;28;20040;-89
2022/01/03 02:04:48;;;;;;;19.13;2.15;;;9.40;99.90;;;;;;5065591;28;20047;-88
2022/01/03 02:07:28;;;;;;;2.30;0.85;;;9.40;99.90;;;;;;5058333;28;20101;-88
2022/01/03 02:10:11;;;;;;;3.97;1.15;;;9.30;99.90;;;;;;5075522;28;20048;-88
2022/01/03 02:12:56;;;;;;;9.93;1.92;;;9.30;99.90;;;;;;5059048;28;20036;-89
2022/01/03 02:15:21;;;;;;;11.60;2.50;;;9.20;99.90;;;;;;5058574;28;20435;-88
2022/01/03 02:17:48;;;;;;;5.60;1.60;;;9.20;99.90;;;;;;5058454;28;20123;-88
2022/01/03 02:20:17;;;;;;;9.27;0.82;;;9.20;99.90;;;;;;5058511;28;20051;-88
2022/01/03 02:22:44;;;;;;;9.40;1.65;;;9.10;99.90;;;;;;5058621;28;20055;-88
2022/01/03 02:25:12;;;;;;;1.17;0.63;;;9.10;99.90;;;;;;5058647;28;20039;-88
2022/01/03 02:27:39;;;;;;;7.78;1.02;;;9.10;99.90;;;;;;5074890;28;20051;-88
2022/01/03 02:30:08;;;;;;;7.22;1.67;;;9.10;99.90;;;;;;5058504;28;20047;-88
2022/01/03 02:32:34;;;;;;;5.90;0.98;;;9.10;99.90;;;;;;5058619;28;20490;-89
2022/01/03 02:35:00;;;;;;;10.20;1.33;;;9.10;99.90;;;;;;5058784;28;20046;-89
2022/01/03 02:37:25;;;;;;;7.97;1.13;;;9.00;99.90;;;;;;5057957;28;20035;-88
2022/01/03 02:40:08;;;;;;;15.55;2.05;;;9.00;99.90;;;;;;5058296;28;20554;-88
2022/01/03 02:42:33;;;;;;;6.15;0.88;;;9.00;99.90;;;;;;5058258;28;20451;-88
2022/01/03 02:45:01;;;;;;;8.27;1.13;;;9.00;99.90;;;;;;5072818;28;20043;-88
2022/01/03 02:47:27;;;;;;;5.88;1.77;;;9.00;99.90;;;;;;5058052;28;20127;-88
2022/01/03 02:49:52;;;;;;;11.70;1.38;;;9.00;99.90;;;;;;5074805;28;20118;-88
2022/01/03 02:52:19;;;;;;;11.75;1.90;;;9.00;99.90;;;;;;5078704;28;20085;-88
2022/01/03 02:54:45;;;;;;;6.47;1.50;;;9.00;99.90;;;;;;5094681;28;20050;-87
2022/01/03 02:57:11;;;;;;;6.93;2.08;;;9.00;99.90;;;;;;5081976;28;20035;-88
2022/01/03 02:59:36;;;;;;;14.13;3.25;;;9.00;99.90;;;;;;5067158;28;20047;-88
2022/01/03 03:02:02;;;;;;;6.32;1.23;;;9.00;99.90;;;;;;5073756;28;20047;-88
2022/01/03 03:04:28;;;;;;;8.70;1.52;;;9.00;99.90;;;;;;5082244;28;20039;-88
2022/01/03 03:06:53;;;;;;;3.22;0.93;;;9.00;99.90;;;;;;5074530;28;20036;-88
2022/01/03 03:09:21;;;;;;;1.83;0.95;;;9.00;99.90;;;;;;5062326;28;20043;-88
2022/01/03 03:12:07;;;;;;;4.20;1.27;;;8.90;99.90;;;;;;5065991;28;20039;-88
2022/01/03 03:14:32;;;;;;;5.10;1.40;;;8.90;99.90;;;;;;5070114;27;20036;-87
2022/01/03 03:16:58;;;;;;;9.70;2.08;;;8.90;99.90;;;;;;5094707;28;20122;-88
2022/01/03 03:19:23;;;;;;;9.02;1.27;;;8.90;99.90;;;;;;5088791;28;20455;-88
2022/01/03 03:21:49;;;;;;;13.45;1.33;;;8.90;99.90;;;;;;5080747;28;20448;-88
2022/01/03 03:24:16;;;;;;;4.93;2.13;;;8.90;99.90;;;;;;5081227;28;20079;-87
2022/01/03 03:26:41;;;;;;;10.95;1.75;;;8.90;99.90;;;;;;5081749;27;20035;-88
2022/01/03 03:29:07;;;;;;;3.63;1.20;;;8.90;99.90;;;;;;5094694;28;20039;-88
2022/01/03 03:31:32;;;;;;;2.88;1.25;;;8.90;99.90;;;;;;5066210;28;20043;-88
2022/01/03 03:33:58;;;;;;;10.20;1.50;;;8.90;99.90;;;;;;5070657;28;20389;-88
2022/01/03 03:36:23;;;;;;;7.00;1.42;;;8.90;99.90;;;;;;5097152;27;20027;-88
2022/01/03 03:38:49;;;;;;;15.02;2.30;;;9.00;99.90;;;;;;5100801;27;20095;-88
2022/01/03 03:41:15;;;;;;;22.02;1.75;;;9.00;99.90;;;;;;5101980;27;20115;-88
2022/01/03 03:43:40;;;;;;;4.25;1.40;;;8.90;99.90;;;;;;5101914;27;20078;-87
2022/01/03 03:46:07;;;;;;;5.15;1.15;;;9.10;99.90;;;;;;5082154;28;20293;-88
2022/01/03 03:48:34;;;;;;;8.65;1.10;;;9.10;99.90;;;;;;5080129;28;20043;-88
2022/01/03 03:51:00;;;;;;;10.18;2.53;;;9.10;99.90;;;;;;5094403;27;20077;-88
2022/01/03 03:53:26;;;;;;;0.30;0.30;;;9.20;99.90;;;;;;5071526;27;20397;-88
2022/01/03 03:55:51;;;;;;;8.13;1.75;;;9.20;99.90;;;;;;5087721;28;20496;-88
2022/01/03 03:58:17;;;;;;;6.35;1.35;;;9.20;99.90;;;;;;5076182;28;20036;-88
2022/01/03 04:00:43;;;;;;;8.85;1.58;;;9.20;99.90;;;;;;5076519;28;20056;-88
2022/01/03 04:03:08;;;;;;;24.90;1.48;;;10.30;99.90;;;;;;5060387;28;20078;-88
2022/01/03 04:05:34;;;;;;;4.43;1.33;;;9.20;99.90;;;;;;5073476;28;20043;-88
2022/01/03 04:08:00;;;;;;;4.95;1.67;;;9.30;99.90;;;;;;5084382;27;20062;-87
2022/01/03 04:10:25;;;;;;;5.05;1.60;;;9.30;99.90;;;;;;5062010;28;20037;-88
2022/01/03 04:12:51;;;;;;;9.00;2.40;;;9.30;99.90;;;;;;5076223;27;20549;-88
2022/01/03 04:15:18;;;;;;;8.00;2.50;;;9.30;99.90;;;;;;5081456;28;20050;-88
2022/01/03 04:17:43;;;;;;;17.17;2.83;;;9.50;99.90;;;;;;5107356;27;20122;-89
2022/01/03 04:20:10;;;;;;;6.97;1.20;;;9.20;99.90;;;;;;5098627;27;20090;-89
2022/01/03 04:22:35;;;;;;;6.78;1.65;;;9.20;99.90;;;;;;5086699;28;20036;-88
2022/01/03 04:25:01;;;;;;;9.73;1.83;;;9.20;99.90;;;;;;5109883;27;20084;-88
2022/01/03 04:27:26;;;;;;;15.98;4.47;;;9.20;99.90;;;;;;5098142;27;20035;-88
2022/01/03 04:29:52;;;;;;;11.02;2.60;;;9.30;99.90;;;;;;5097936;28;20042;-88
2022/01/03 04:32:19;;;;;;;10.45;1.73;;;9.20;99.90;;;;;;5087225;27;20073;-88
2022/01/03 04:34:44;;;;;;;4.15;1.30;;;9.20;99.90;;;;;;5081011;28;20549;-88
2022/01/03 04:37:13;;;;;;;12.07;2.15;;;9.70;99.90;;;;;;5071071;28;20036;-88
2022/01/03 04:39:39;;;;;;;3.85;1.15;;;9.20;99.90;;;;;;5085817;28;20039;-88
2022/01/03 04:42:05;;;;;;;6.50;1.30;;;9.30;99.90;;;;;;5064193;28;20047;-88
2022/01/03 04:44:31;;;;;;;10.10;1.98;;;9.20;99.90;;;;;;5060883;28;20091;-88
2022/01/03 04:46:56;;;;;;;5.63;1.13;;;9.20;99.90;;;;;;5103439;27;20043;-88
2022/01/03 04:49:22;;;;;;;22.42;2.97;;;9.20;99.90;;;;;;5084423;28;20168;-88
2022/01/03 04:51:48;;;;;;;14.35;2.70;;;9.30;99.90;;;;;;5063701;28;20035;-88
2022/01/03 04:54:13;;;;;;;10.05;2.05;;;9.50;99.90;;;;;;5081288;27;20057;-88
2022/01/03 04:56:57;;;;;;;20.13;2.88;;;9.20;99.90;;;;;;5074704;28;20480;-89
2022/01/03 04:59:22;;;;;;;13.82;1.77;;;9.20;99.90;;;;;;5086356;28;20047;-88
2022/01/03 05:01:48;;;;;;;13.18;2.47;;;9.10;99.90;;;;;;5088650;27;20039;-88
2022/01/03 05:04:14;;;;;;;12.50;2.33;;;9.10;99.90;;;;;;5083134;27;20109;-87
2022/01/03 05:06:39;;;;;;;5.95;1.38;;;9.30;99.90;;;;;;5078420;27;20595;-88
2022/01/03 05:09:05;;;;;;;9.32;2.15;;;9.10;99.90;;;;;;5075568;28;20118;-88
2022/01/03 05:11:30;;;;;;;6.88;1.40;;;9.10;99.90;;;;;;5078852;27;20085;-88
2022/01/03 05:13:56;;;;;;;11.27;2.30;;;9.10;99.90;;;;;;5064534;28;20070;-88
2022/01/03 05:16:21;;;;;;;9.93;2.03;;;9.10;99.90;;;;;;5070567;28;20036;-88
2022/01/03 05:18:47;;;;;;;5.40;1.05;;;9.10;99.90;;;;;;5090598;28;20032;-88
2022/01/03 05:21:13;;;;;;;11.23;2.42;;;9.00;99.90;;;;;;5072925;27;20039;-88
2022/01/03 05:23:39;;;;;;;12.18;2.30;;;9.00;99.90;;;;;;5099318;27;20047;-88
2022/01/03 05:26:05;;;;;;;5.30;0.63;;;9.00;99.90;;;;;;5059558;28;20036;-89
2022/01/03 05:28:30;;;;;;;3.08;1.05;;;9.10;99.90;;;;;;5077620;28;20086;-88
2022/01/03 05:30:57;;;;;;;4.55;1.30;;;9.00;99.90;;;;;;5075496;28;20040;-88
2022/01/03 05:33:23;;;;;;;8.80;2.65;;;9.00;99.90;;;;;;5069320;28;20043;-88
2022/01/03 05:35:49;;;;;;;9.18;1.92;;;9.00;99.90;;;;;;5099342;27;20027;-88
2022/01/03 05:38:14;;;;;;;3.30;1.33;;;9.70;99.90;;;;;;5088467;27;20035;-88
2022/01/03 05:40:40;;;;;;;9.48;1.33;;;8.90;99.90;;;;;;5097222;27;20462;-88
2022/01/03 05:43:06;;;;;;;8.38;2.20;;;8.90;99.90;;;;;;5091428;27;20063;-89
2022/01/03 05:45:31;;;;;;;26.77;2.88;;;9.20;99.90;;;;;;5103902;28;20042;-88
2022/01/03 05:47:57;;;;;;;6.57;4.05;;;8.90;99.90;;;;;;5063619;28;20044;-88
2022/01/03 05:50:23;;;;;;;14.32;2.13;;;9.60;99.90;;;;;;5072822;28;20032;-88
2022/01/03 05:52:48;;;;;;;10.00;2.25;;;8.90;99.90;;;;;;5058538;28;20036;-88
2022/01/03 05:55:14;;;;;;;6.28;1.40;;;8.90;99.90;;;;;;5059140;28;20046;-88
2022/01/03 05:57:40;;;;;;;11.23;1.55;;;8.90;99.90;;;;;;5082941;27;20067;-87
2022/01/03 06:00:07;;;;;;;6.07;1.50;;;8.90;99.90;;;;;;5088793;28;20043;-88
2022/01/03 06:02:38;;;;;;;8.93;1.55;;;8.80;99.90;;;;;;5078082;27;20043;-88
2022/01/03 06:05:06;;;;;;;6.50;1.05;;;8.80;99.90;;;;;;5091089;28;20047;-88
2022/01/03 06:07:31;;;;;;;9.77;2.42;;;8.80;99.90;;;;;;5078016;28;20820;-88
2022/01/03 06:09:57;;;;;;;12.40;1.30;;;9.20;99.90;;;;;;5062911;28;20036;-88
2022/01/03 06:12:23;;;;;;;3.03;1.20;;;9.30;99.90;;;;;;5076921;28;20043;-88
2022/01/03 06:14:49;;;;;;;39.65;2.00;;;8.80;99.90;;;;;;5079862;28;20491;-88
2022/01/03 06:17:16;;;;;;;3.60;0.77;;;9.20;99.90;;;;;;5072879;28;20039;-88
2022/01/03 06:19:42;;;;;;;5.30;1.27;;;9.10;99.90;;;;;;5067454;28;20396;-88
2022/01/03 06:22:09;;;;;;;16.75;2.65;;;8.70;99.90;;;;;;5090512;28;20039;-89
2022/01/03 06:24:37;;;;;;;7.40;2.45;;;8.70;99.90;;;;;;5077525;28;20126;-88
2022/01/03 06:27:04;;;;;;;13.45;2.13;;;8.70;99.90;;;;;;5089311;28;20035;-88
2022/01/03 06:29:30;;;;;;;8.77;1.58;;;9.10;99.90;;;;;;5086636;28;20047;-88
2022/01/03 06:31:56;;;;;;;13.35;3.00;;;9.10;99.90;;;;;;5072259;28;20031;-88
2022/01/03 06:34:21;;;;;;;3.17;1.08;;;8.80;99.90;;;;;;5079773;28;20113;-88
2022/01/03 06:36:47;;;;;;;12.63;2.25;;;8.80;99.90;;;;;;5059108;28;20083;-88
2022/01/03 06:39:13;;;;;;;4.28;1.50;;;8.80;99.90;;;;;;5066805;28;20067;-88
2022/01/03 06:41:40;;;;;;;6.60;1.52;;;8.80;99.90;;;;;;5074584;28;20043;-88
2022/01/03 06:44:06;;;;;;;9.27;1.85;;;8.80;99.90;;;;;;5077599;28;20043;-88
2022/01/03 06:46:32;;;;;;;10.95;3.50;;;8.80;99.90;;;;;;5057227;28;20036;-88
2022/01/03 06:49:00;;;;;;;6.57;0.85;;;9.70;99.90;;;;;;5057537;28;20036;-88
2022/01/03 06:51:27;;;;;;;8.35;1.83;;;8.90;99.90;;;;;;5081213;28;20048;-88
2022/01/03 06:53:52;;;;;;;8.65;1.85;;;8.80;99.90;;;;;;5083295;28;20519;-88
2022/01/03 06:56:18;;;;;;;11.23;2.00;;;9.20;99.90;;;;;;5091395;28;20040;-88
2022/01/03 06:58:46;;;;;;;5.60;0.52;;;8.80;99.90;;;;;;5086642;28;20046;-88
2022/01/03 07:01:11;;;;;;;8.05;1.42;;;8.80;99.90;;;;;;5087333;28;20035;-88
2022/01/03 07:03:37;;;;;;;28.73;1.65;;;8.80;99.90;;;;;;5072197;28;20039;-89
2022/01/03 07:06:02;;;;;;;11.20;2.65;;;8.80;99.90;;;;;;5072638;28;20063;-88
2022/01/03 07:08:28;;;;;;;16.23;2.35;;;9.10;99.90;;;;;;5084073;28;20043;-89
2022/01/03 07:10:53;;;;;;;6.40;1.45;;;8.90;99.90;;;;;;5098470;28;20043;-87
2022/01/03 07:13:19;;;;;;;3.30;0.75;;;8.90;99.90;;;;;;5058333;28;20040;-87
2022/01/03 07:19:18;;;;;;;12.35;2.08;;;8.90;99.90;;;;;;5074007;28;20416;-87
2022/01/03 07:21:38;;;;;;;9.95;2.00;;;8.90;99.90;;;;;;5076280;28;20113;-87
2022/01/03 07:24:04;;;;;;;5.88;1.55;;;8.90;99.90;;;;;;5076191;28;20032;-87
2022/01/03 07:26:29;;;;;;;12.93;1.77;;;8.90;99.90;;;;;;5084962;28;20032;-86
2022/01/03 07:28:55;;;;;;;4.60;1.30;;;9.20;99.90;;;;;;5078147;28;20042;-86
2022/01/03 07:31:21;;;;;;;14.20;1.95;;;9.00;99.90;;;;;;5075070;28;20114;-89
2022/01/03 07:33:47;;;;;;;7.50;1.98;;;9.00;99.90;;;;;;5063498;28;20153;-87
2022/01/03 07:36:14;;;;;;;6.28;2.03;;;9.00;99.90;;;;;;5057537;28;20032;-87
2022/01/03 07:38:39;;;;;;;11.73;2.47;;;9.10;99.90;;;;;;5088359;27;20031;-87
2022/01/03 07:41:05;;;;;;;18.75;2.70;;;9.10;99.90;;;;;;5073259;28;20119;-87
2022/01/03 07:43:31;;;;;;;9.55;2.03;;;9.10;99.90;;;;;;5060467;28;20036;-87
2022/01/03 07:45:57;;;;;;;28.15;2.03;;;9.10;99.90;;;;;;5086946;27;20043;-88
2022/01/03 07:48:23;;;;;;;19.70;2.53;;;9.20;99.90;;;;;;5078832;28;20050;-87
2022/01/03 07:50:49;;;;;;;4.82;1.05;;;9.20;99.90;;;;;;5067858;27;20480;-86
2022/01/03 07:53:15;;;;;;;14.27;2.17;;;10.00;99.90;;;;;;5088365;27;20031;-88
2022/01/03 07:55:40;;;;;;;4.68;1.05;;;9.30;99.90;;;;;;5070061;28;20085;-87
2022/01/03 07:58:06;;;;;;;5.30;1.88;;;9.30;99.90;;;;;;5072938;28;20179;-86
2022/01/03 08:00:31;;;;;;;9.02;2.00;;;11.20;99.90;;;;;;5062785;27;20040;-88
2022/01/03 08:02:57;;;;;;;4.70;1.70;;;9.30;99.90;;;;;;5087464;28;20524;-88
2022/01/03 08:05:22;;;;;;;13.40;3.20;;;9.30;99.90;;;;;;5069708;28;20039;-88
2022/01/03 08:08:09;;;;;;;11.80;1.67;;;9.50;99.90;;;;;;5076935;28;20466;-88
2022/01/03 08:10:36;;;;;;;4.55;1.33;;;9.40;99.90;;;;;;5093014;27;20068;-87
2022/01/03 08:13:02;;;;;;;16.60;2.75;;;9.60;99.90;;;;;;5092845;28;20047;-88
2022/01/03 08:15:27;;;;;;;3.03;0.77;;;10.20;99.90;;;;;;5081958;27;20024;-88
2022/01/03 08:17:53;;;;;;;14.05;1.92;;;9.40;99.90;;;;;;5090403;27;20035;-87
2022/01/03 08:20:20;;;;;;;9.43;1.55;;;9.40;99.90;;;;;;5097684;27;20039;-88
2022/01/03 08:22:59;;;;;;;9.35;2.03;;;9.40;99.90;;;;;;5086603;28;20032;-87
2022/01/03 08:25:25;;;;;;;16.92;2.33;;;9.40;99.90;;;;;;5080975;28;20035;-88
2022/01/03 08:27:51;;;;;;;2.95;0.77;;;9.40;99.90;;;;;;5065524;28;20059;-88
2022/01/03 08:30:17;;;;;;;27.30;2.15;;;9.40;99.90;;;;;;5090176;27;20383;-88
2022/01/03 08:32:43;;;;;;;11.40;2.25;;;9.40;99.90;;;;;;5076053;28;20123;-88
2022/01/03 08:35:09;;;;;;;5.97;1.63;;;9.40;99.90;;;;;;5097600;28;20063;-88
2022/01/03 08:37:35;;;;;;;1.10;0.52;;;9.50;99.90;;;;;;5075697;28;20056;-89
2022/01/03 08:40:04;;;;;;;13.73;1.50;;;9.40;99.90;;;;;;5071609;28;20831;-89
2022/01/03 08:42:31;;;;;;;7.18;2.92;;;9.50;99.90;;;;;;5063200;28;20043;-87
2022/01/03 08:44:57;;;;;;;9.38;1.83;;;9.50;99.90;;;;;;5084287;27;20035;-88
2022/01/03 08:47:22;;;;;;;8.18;1.38;;;9.50;99.90;;;;;;5080285;28;20043;-88
2022/01/03 08:49:48;;;;;;;12.13;2.33;;;9.50;99.90;;;;;;5089289;27;20043;-88
2022/01/03 08:52:15;;;;;;;12.25;3.35;;;9.50;99.90;;;;;;5092024;28;20519;-89
2022/01/03 08:54:41;;;;;;;9.60;1.70;;;9.50;99.90;;;;;;5059899;28;20044;-89
2022/01/03 08:57:07;;;;;;;10.65;2.65;;;9.70;99.90;;;;;;5083919;28;20373;-87
2022/01/03 08:59:33;;;;;;;3.70;1.23;;;9.60;99.90;;;;;;5067325;28;20047;-87
2022/01/03 09:01:58;;;;;;;5.15;2.00;;;9.60;99.90;;;;;;5080396;28;20520;-89
2022/01/03 09:04:24;;;;;;;23.10;4.45;;;9.60;99.90;;;;;;5075452;28;20035;-90
2022/01/03 09:06:51;;;;;;;5.45;1.63;;;9.50;99.90;;;;;;5075559;28;20040;-88
2022/01/03 09:09:17;;;;;;;12.32;2.35;;;9.60;99.90;;;;;;5058691;28;20040;-86
2022/01/03 09:11:43;;;;;;;9.70;2.35;;;9.60;99.90;;;;;;5059114;28;20036;-87
2022/01/03 09:14:08;;;;;;;12.43;2.53;;;9.60;99.90;;;;;;5066903;28;20035;-86
2022/01/03 09:16:34;;;;;;;17.15;2.35;;;9.60;99.90;;;;;;5094621;27;20046;-87
2022/01/03 09:18:59;;;;;;;7.75;1.85;;;9.60;99.90;;;;;;5115620;27;20404;-88
2022/01/03 09:21:25;;;;;;;4.75;1.02;;;9.60;99.90;;;;;;5059293;28;20036;-87
2022/01/03 09:24:04;;;;;;;8.00;2.08;;;9.70;99.90;;;;;;5070640;27;20031;-91
2022/01/03 09:29:17;;;;;;;9.55;1.88;;;9.70;99.90;;;;;;5075748;28;20044;-89
2022/01/03 09:31:42;;;;;;;3.35;1.10;;;9.70;99.90;;;;;;5058937;28;20476;-89
2022/01/03 09:34:08;;;;;;;13.98;1.27;;;9.80;99.90;;;;;;5072788;28;20071;-89
2022/01/03 09:36:34;;;;;;;5.90;1.50;;;9.80;99.90;;;;;;5070172;28;20050;-90
2022/01/03 09:39:02;;;;;;;12.15;1.98;;;9.80;99.90;;;;;;5083646;27;20073;-89
2022/01/03 09:41:29;;;;;;;8.80;2.05;;;9.90;99.90;;;;;;5115848;27;20050;-89
2022/01/03 09:44:02;;;;;;;14.00;3.83;;;9.90;99.90;;;;;;5098776;27;20479;-87
2022/01/03 09:46:33;;;;;;;9.35;1.90;;;9.90;99.90;;;;;;5097832;27;20108;-87
2022/01/03 09:48:59;;;;;;;19.40;3.55;;;9.90;99.90;;;;;;5098407;27;20187;-88
2022/01/03 09:51:27;;;;;;;4.00;1.02;;;9.90;99.90;;;;;;5072873;28;20145;-87
2022/01/03 09:54:12;;;;;;;5.85;1.02;;;9.90;99.90;;;;;;5078042;28;20508;-88
2022/01/03 09:56:40;;;;;;;10.73;1.43;;;9.90;99.90;;;;;;5077859;28;20035;-88
2022/01/03 09:59:07;;;;;;;5.03;1.73;;;9.90;99.90;;;;;;5076744;28;20437;-88
2022/01/03 10:01:33;;;;;;;18.80;1.70;;;9.90;99.90;;;;;;5069344;28;20047;-88
2022/01/03 10:04:00;;;;;;;13.88;3.35;;;9.90;99.90;;;;;;5063984;28;20523;-86
2022/01/03 10:06:27;;;;;;;11.18;1.60;;;9.90;99.90;;;;;;5094943;28;20039;-87
2022/01/03 10:08:54;;;;;;;16.27;2.20;;;9.90;99.90;;;;;;5060428;28;20497;-86
2022/01/03 10:11:21;;;;;;;16.48;3.05;;;9.90;99.90;;;;;;5085214;28;20050;-87
2022/01/03 10:13:47;;;;;;;10.77;1.48;;;9.90;99.90;;;;;;5063978;28;20759;-87
2022/01/03 10:16:13;;;;;;;8.80;1.33;;;9.90;99.90;;;;;;5062345;28;20028;-89
2022/01/03 10:18:38;;;;;;;5.78;1.52;;;9.90;99.90;;;;;;5067836;28;20566;-87
2022/01/03 10:21:06;;;;;;;8.07;1.30;;;9.90;99.90;;;;;;5068389;28;20110;-89
2022/01/03 10:23:32;;;;;;;6.78;1.30;;;9.90;99.90;;;;;;5067478;28;20050;-88
2022/01/03 10:26:15;;;;;;;14.23;1.92;;;10.00;99.90;;;;;;5077477;28;20078;-86
2022/01/03 10:28:41;;;;;;;8.18;1.50;;;10.00;99.90;;;;;;5078847;28;20036;-86
2022/01/03 10:31:37;;;;;;;7.93;2.30;;;10.00;99.90;;;;;;5063571;28;20046;-88
2022/01/03 10:34:17;;;;;;;17.88;3.22;;;10.00;99.90;;;;;;5092440;28;20045;-88
2022/01/03 10:36:47;;;;;;;3.95;0.88;;;10.00;99.90;;;;;;5067811;28;20027;-88
2022/01/03 10:39:24;;;;;;;3.78;1.08;;;10.10;99.90;;;;;;5073007;28;20031;-88
2022/01/03 10:41:52;;;;;;;12.60;2.72;;;10.10;99.90;;;;;;5077829;28;20385;-89
2022/01/03 10:44:32;;;;;;;15.18;3.25;;;10.20;99.90;;;;;;5063818;28;20028;-86
2022/01/03 10:46:58;;;;;;;11.15;2.50;;;10.20;99.90;;;;;;5073649;28;20124;-87
2022/01/03 10:49:26;;;;;;;5.03;1.77;;;10.30;99.90;;;;;;5057145;28;20473;-88
2022/01/03 10:51:52;;;;;;;6.53;2.03;;;10.30;99.90;;;;;;5057805;28;20038;-88
2022/01/03 10:54:18;;;;;;;6.07;0.98;;;10.40;99.90;;;;;;5070167;28;20086;-88
2022/01/03 10:56:50;;;;;;;15.52;2.40;;;10.50;99.90;;;;;;5065428;28;20032;-87
2022/01/03 10:59:15;;;;;;;12.98;2.13;;;10.50;99.90;;;;;;5074313;28;20043;-87
2022/01/03 11:01:43;;;;;;;7.68;1.63;;;10.50;99.90;;;;;;5064089;28;20032;-88
2022/01/03 11:04:11;;;;;;;3.90;1.75;;;10.40;99.90;;;;;;5077353;28;20040;-87
2022/01/03 11:11:55;;;;;;;8.40;1.63;;;10.40;99.90;;;;;;5075275;28;20055;-85
2022/01/03 11:14:30;;;;;;;1.05;0.80;;;10.40;99.90;;;;;;5061005;28;20048;-87
2022/01/03 11:16:57;;;;;;;7.32;1.38;;;10.40;99.90;;;;;;5080314;28;20048;-86
2022/01/03 11:19:39;;;;;;;10.30;1.92;;;10.40;99.90;;;;;;5076337;28;20040;-87
2022/01/03 11:22:42;;;;;;;2.00;0.43;;;10.40;99.90;;;;;;5060668;28;20117;-87
2022/01/03 11:25:29;;;;;;;10.90;2.10;;;10.30;99.90;;;;;;5063299;28;20409;-87
2022/01/03 11:27:55;;;;;;;6.85;1.88;;;10.30;99.90;;;;;;5072861;28;20055;-87
2022/01/03 11:30:25;;;;;;;10.82;1.67;;;10.30;99.90;;;;;;5088373;28;20048;-87
2022/01/03 11:32:56;;;;;;;12.70;3.08;;;10.30;99.90;;;;;;5066395;28;20031;-87
2022/01/03 11:35:22;;;;;;;3.47;0.80;;;10.40;99.90;;;;;;5064272;28;20100;-90
2022/01/03 11:38:02;;;;;;;19.55;2.72;;;10.50;99.90;;;;;;5063543;28;20028;-89
2022/01/03 11:40:28;;;;;;;8.13;1.98;;;10.50;99.90;;;;;;5080952;28;20134;-89
2022/01/03 11:42:54;;;;;;;1.80;0.93;;;10.60;99.90;;;;;;5067377;28;20078;-89
2022/01/03 11:45:20;;;;;;;1.30;0.45;;;10.60;99.90;;;;;;5077256;28;20468;-90
2022/01/03 11:47:48;;;;;;;7.57;1.27;;;10.70;99.90;;;;;;5067762;28;20122;-89
2022/01/03 11:50:14;;;;;;;3.85;0.75;;;10.70;99.90;;;;;;5060453;28;20449;-88
2022/01/03 11:52:42;;;;;;;19.40;2.15;;;10.70;99.90;;;;;;5060578;28;20071;-89
2022/01/03 11:55:37;;;;;;;6.55;1.58;;;10.70;99.90;;;;;;5061073;28;20039;-89
2022/01/03 12:03:40;;;;;;;10.40;1.75;;;10.70;99.90;;;;;;5094090;28;20040;-89
2022/01/03 12:06:08;;;;;;;16.98;2.85;;;10.70;99.90;;;;;;5060010;28;20032;-89
2022/01/03 12:08:36;;;;;;;27.02;4.32;;;10.80;99.90;;;;;;5076690;28;20074;-88
2022/01/03 12:11:20;;;;;;;14.05;2.67;;;10.80;99.90;;;;;;5059845;28;20121;-89
2022/01/03 12:13:47;;;;;;;20.02;2.97;;;10.70;99.90;;;;;;5067859;28;20036;-89
2022/01/03 12:16:13;;;;;;;12.15;1.67;;;10.70;99.90;;;;;;5079972;28;20126;-87
2022/01/03 12:18:54;;;;;;;4.85;1.45;;;10.70;99.90;;;;;;5079732;28;20161;-87
2022/01/03 12:21:48;;;;;;;11.05;1.33;;;10.70;99.90;;;;;;5079760;28;20172;-87
2022/01/03 12:24:26;;;;;;;6.50;2.33;;;10.70;99.90;;;;;;5078668;28;20052;-87
2022/01/03 12:27:10;;;;;;;13.57;2.30;;;10.70;99.90;;;;;;5079866;28;20039;-87
2022/01/03 12:29:54;;;;;;;10.27;2.10;;;10.70;99.90;;;;;;5094743;28;20035;-89
2022/01/03 12:32:30;;;;;;;6.70;1.52;;;10.70;99.90;;;;;;5071336;28;20412;-87
2022/01/03 12:35:18;;;;;;;11.52;2.88;;;10.70;99.90;;;;;;5061678;28;20047;-87
2022/01/03 12:37:47;;;;;;;12.30;1.75;;;10.70;99.90;;;;;;5063083;28;20397;-87
2022/01/03 12:40:18;;;;;;;11.23;2.58;;;10.70;99.90;;;;;;5059264;28;20122;-87
2022/01/03 12:42:52;;;;;;;12.18;2.13;;;10.70;99.90;;;;;;5068167;28;20078;-90
2022/01/03 12:45:56;;;;;;;5.90;1.57;;;10.60;99.90;;;;;;5070622;28;20040;-88
2022/01/03 12:48:24;;;;;;;14.20;2.17;;;10.70;99.90;;;;;;5058849;28;20294;-87
2022/01/03 12:50:52;;;;;;;8.82;1.75;;;10.70;99.90;;;;;;5059242;28;20089;-87
2022/01/03 12:53:27;;;;;;;3.97;0.70;;;10.70;99.90;;;;;;5059217;28;20040;-87
2022/01/03 12:56:28;;;;;;;9.95;1.67;;;10.70;99.90;;;;;;5068934;28;20140;-87
2022/01/03 12:58:56;;;;;;;10.02;1.30;;;10.60;99.90;;;;;;5070943;28;20032;-87
2022/01/03 13:01:29;;;;;;;14.70;2.47;;;10.60;99.90;;;;;;5069429;28;20040;-88
2022/01/03 13:03:58;;;;;;;3.58;1.13;;;11.00;99.90;;;;;;5059172;28;20122;-87
2022/01/03 13:07:07;;;;;;;5.40;0.93;;;10.60;99.90;;;;;;5058792;28;20375;-88
2022/01/03 13:09:37;;;;;;;5.28;1.00;;;10.60;99.90;;;;;;5059286;28;20089;-86
2022/01/03 13:12:49;;;;;;;4.88;1.23;;;10.60;99.90;;;;;;5060807;28;20035;-90
2022/01/03 13:15:20;;;;;;;10.88;2.35;;;10.60;99.90;;;;;;5079067;28;20059;-87
2022/01/03 13:17:45;;;;;;;13.90;1.83;;;10.60;99.90;;;;;;5078294;28;20035;-87
2022/01/03 13:20:11;;;;;;;13.60;3.53;;;10.60;99.90;;;;;;5078471;28;20428;-87